EGKK - London / Gatwick Airport
Distance from station: E 5mi, 14km
Updated: 02/23/2018 12:20pm
Few Clouds
Few Clouds
 Wind from ENE
Wind: ENE 7 mph , 11 km/h
Temperature: 30°F , -1°C
Wind Chill: 23°F , -5°C
Dew Point: 25°F , -4°C
Humidity: 80%
Barometer: 30.06 inHg , 1018 hPa
Clouds: Few Clouds
Visibility: 6 miles , 10 km
Cloud details: Few Clouds 2400 ft
2018/02/23 20:20 EGKK 232020Z 06006KT 9999 FEW024 M01/M04 Q1018